Time;durP1;ratioP1;P1;durP2;ratioP2;P2;SDS_P1;SDS_P2;PMS_P1;PMS_P2;Temp;Humidity;BMP_temperature;BMP_pressure;BME280_temperature;BME280_humidity;BME280_pressure;Samples;Min_cycle;Max_cycle;Signal;HPM_P1;HPM_P2
2021/11/17 02:28:13;;;;;;;34.53;23.70;;;77.60;2227.20;;;;;;5013037;28;20077;-54
2021/11/17 02:30:50;;;;;;;40.97;24.92;;;77.70;2227.20;;;;;;5012952;28;20030;-54
2021/11/17 02:33:38;;;;;;;43.20;28.05;;;77.70;2227.20;;;;;;5013023;28;20041;-54
2021/11/17 02:36:28;;;;;;;46.42;26.35;;;102.40;2227.20;;;;;;5013395;28;20361;-56
2021/11/17 02:39:12;;;;;;;44.83;24.25;;;102.50;2227.20;;;;;;5012978;28;20041;-56
2021/11/17 02:42:23;;;;;;;40.25;23.45;;;102.50;2227.20;;;;;;5012924;28;20385;-56
2021/11/17 02:45:00;;;;;;;45.25;26.35;;;102.50;2227.20;;;;;;5017387;28;20084;-56
2021/11/17 02:47:35;;;;;;;36.45;24.92;;;102.40;2227.20;;;;;;5012820;28;20049;-56
2021/11/17 02:50:32;;;;;;;32.75;21.88;;;102.50;2227.20;;;;;;5012950;28;20022;-57
2021/11/17 02:53:33;;;;;;;45.13;27.52;;;102.60;2227.20;;;;;;5012598;28;20022;-57
2021/11/17 02:56:14;;;;;;;33.95;21.75;;;102.50;2227.20;;;;;;5012508;28;20495;-56
2021/11/17 02:59:19;;;;;;;30.38;19.08;;;102.50;2227.20;;;;;;5012515;28;20068;-56
2021/11/17 03:01:51;;;;;;;33.85;19.73;;;77.70;2227.20;;;;;;5011576;28;20088;-56
2021/11/17 03:04:22;;;;;;;30.60;19.73;;;102.40;2227.20;;;;;;5012451;28;20472;-56
2021/11/17 03:07:00;;;;;;;34.35;20.38;;;77.70;2227.20;;;;;;5012355;28;20381;-56
2021/11/17 03:09:26;;;;;;;34.45;18.85;;;77.70;2227.20;;;;;;5012721;28;20033;-56
2021/11/17 03:12:13;;;;;;;31.85;19.88;;;102.40;2227.20;;;;;;5012502;28;20030;-57
2021/11/17 03:14:39;;;;;;;39.50;22.50;;;77.70;2227.20;;;;;;5012234;28;20030;-56
2021/11/17 03:17:20;;;;;;;30.33;20.10;;;77.70;2227.20;;;;;;5012208;28;20057;-56
2021/11/17 03:20:12;;;;;;;38.47;23.38;;;77.70;2227.20;;;;;;5012128;28;20350;-56
2021/11/17 03:22:46;;;;;;;33.33;21.10;;;77.70;2227.20;;;;;;5012428;28;20045;-56
2021/11/17 03:25:11;;;;;;;36.78;22.95;;;102.40;2227.20;;;;;;5012311;28;20437;-56
2021/11/17 03:27:58;;;;;;;33.65;21.00;;;102.40;2227.20;;;;;;5012003;28;20061;-57
2021/11/17 03:30:45;;;;;;;39.85;21.00;;;77.70;2227.20;;;;;;5012043;28;20278;-57
2021/11/17 03:33:21;;;;;;;40.55;21.15;;;77.70;2227.20;;;;;;5012027;28;20030;-56
2021/11/17 03:36:12;;;;;;;34.35;22.35;;;77.70;2227.20;;;;;;5011892;28;20037;-56
2021/11/17 03:38:43;;;;;;;34.35;19.98;;;102.40;2227.20;;;;;;5011643;28;20061;-55
2021/11/17 03:41:25;;;;;;;37.55;20.48;;;102.40;2227.20;;;;;;5011727;28;20409;-56
2021/11/17 03:44:10;;;;;;;34.53;21.42;;;77.70;2227.20;;;;;;5012043;28;20022;-56
2021/11/17 03:46:45;;;;;;;31.70;20.52;;;102.40;2227.20;;;;;;5011690;28;20026;-56
2021/11/17 03:49:25;;;;;;;36.28;21.73;;;102.50;2227.20;;;;;;5011661;28;20080;-56
2021/11/17 03:52:21;;;;;;;30.30;20.00;;;77.70;2227.20;;;;;;5011789;28;20025;-56
2021/11/17 03:55:02;;;;;;;33.47;20.15;;;102.40;2227.20;;;;;;5011423;28;20030;-56
2021/11/17 03:57:36;;;;;;;28.50;17.50;;;102.40;2227.20;;;;;;5011289;28;20037;-55
2021/11/17 04:00:36;;;;;;;30.58;17.90;;;102.40;2227.20;;;;;;5011484;28;20381;-56
2021/11/17 04:03:26;;;;;;;34.03;20.77;;;102.50;2227.20;;;;;;5011586;28;20034;-56
2021/11/17 04:06:21;;;;;;;42.38;25.00;;;102.50;2227.20;;;;;;5011504;28;20034;-56
2021/11/17 04:09:06;;;;;;;29.02;18.52;;;102.40;2227.20;;;;;;5028676;28;20112;-57
2021/11/17 04:11:46;;;;;;;33.25;19.58;;;102.40;2227.20;;;;;;5029028;28;20120;-56
2021/11/17 04:14:45;;;;;;;30.75;19.00;;;102.40;2227.20;;;;;;5028975;28;20029;-55
2021/11/17 04:17:32;;;;;;;29.10;23.50;;;102.50;2227.20;;;;;;5028808;28;20613;-56
2021/11/17 04:20:30;;;;;;;44.35;26.83;;;102.40;2227.20;;;;;;5028585;28;20033;-56
2021/11/17 04:23:09;;;;;;;37.28;21.02;;;102.40;2227.20;;;;;;5028493;28;20574;-56
2021/11/17 04:25:59;;;;;;;35.45;27.83;;;102.50;2227.20;;;;;;5028881;28;20561;-57
2021/11/17 04:28:40;;;;;;;38.50;24.52;;;102.50;2227.20;;;;;;5028256;28;20053;-54
2021/11/17 04:31:28;;;;;;;35.22;22.63;;;102.50;2227.20;;;;;;5028364;28;20061;-55
2021/11/17 04:33:57;;;;;;;30.25;20.17;;;77.70;2227.20;;;;;;5028522;28;20034;-55
2021/11/17 04:36:31;;;;;;;30.38;19.45;;;77.70;2227.20;;;;;;5028677;28;20029;-56
2021/11/17 04:39:14;;;;;;;29.40;19.55;;;77.70;2227.20;;;;;;5028036;28;20098;-56
2021/11/17 04:41:40;;;;;;;24.85;19.65;;;102.40;2227.20;;;;;;5028381;28;20030;-57
2021/11/17 04:44:26;;;;;;;32.22;17.40;;;102.40;2227.20;;;;;;5028271;28;20393;-56
2021/11/17 04:47:13;;;;;;;33.72;23.63;;;77.70;2227.20;;;;;;5010873;28;20244;-55
2021/11/17 04:49:45;;;;;;;33.80;21.42;;;102.40;2227.20;;;;;;5010499;28;20361;-55
2021/11/17 04:52:11;;;;;;;33.22;20.98;;;102.50;2227.20;;;;;;5010600;28;20033;-56
2021/11/17 04:54:39;;;;;;;31.85;19.90;;;102.50;2227.20;;;;;;5010482;28;20022;-55
2021/11/17 04:57:11;;;;;;;36.25;19.02;;;102.40;2227.20;;;;;;5010531;28;20045;-56
2021/11/17 05:00:06;;;;;;;30.67;18.27;;;77.70;2227.20;;;;;;5010133;28;20034;-56
2021/11/17 05:03:13;;;;;;;56.92;30.98;;;77.70;2227.20;;;;;;5010955;28;20026;-56
2021/11/17 05:05:42;;;;;;;45.13;33.85;;;77.70;2227.20;;;;;;5027780;28;20037;-56
2021/11/17 05:08:44;;;;;;;31.27;20.65;;;102.40;2227.20;;;;;;5027854;28;20084;-55
2021/11/17 05:11:46;;;;;;;34.42;25.13;;;102.40;2227.20;;;;;;5027661;28;20400;-55
2021/11/17 05:14:17;;;;;;;66.50;38.60;;;102.50;2227.20;;;;;;5014149;28;20060;-56
2021/11/17 05:17:04;;;;;;;45.65;26.67;;;102.40;2227.20;;;;;;5027986;28;20048;-56
2021/11/17 05:19:56;;;;;;;42.65;26.17;;;102.40;2227.20;;;;;;5027733;28;20037;-56
2021/11/17 05:22:43;;;;;;;50.13;32.60;;;102.40;2227.20;;;;;;5028389;28;20036;-55
2021/11/17 05:25:15;;;;;;;96.82;68.43;;;102.40;2227.20;;;;;;5034138;28;20527;-56
2021/11/17 05:27:58;;;;;;;46.25;26.80;;;102.40;2227.20;;;;;;5034530;28;20037;-55
2021/11/17 05:30:46;;;;;;;37.83;24.83;;;77.60;2227.20;;;;;;5036565;28;20545;-55
2021/11/17 05:33:31;;;;;;;49.75;32.35;;;77.70;2227.20;;;;;;5054306;28;20621;-56
2021/11/17 05:36:06;;;;;;;52.78;35.15;;;77.60;2227.20;;;;;;5054135;28;20064;-56
2021/11/17 05:38:37;;;;;;;84.60;50.53;;;77.60;2227.20;;;;;;5054328;28;20458;-56
2021/11/17 05:41:12;;;;;;;44.28;25.80;;;77.40;2227.20;;;;;;5054491;28;20032;-56
2021/11/17 05:44:15;;;;;;;36.78;24.58;;;77.20;2227.20;;;;;;5036675;28;20069;-56
2021/11/17 05:47:09;;;;;;;50.57;30.23;;;77.40;2227.20;;;;;;5036572;28;20025;-54
2021/11/17 05:49:50;;;;;;;51.30;29.90;;;77.40;2227.20;;;;;;5035353;28;20044;-54
2021/11/17 05:52:51;;;;;;;50.67;32.42;;;77.50;2227.20;;;;;;5036329;28;20025;-54
2021/11/17 05:55:51;;;;;;;56.03;36.20;;;77.50;2227.20;;;;;;5035999;28;20441;-56
2021/11/17 05:58:36;;;;;;;72.95;43.03;;;77.70;2227.20;;;;;;5029162;28;20065;-56
2021/11/17 06:01:19;;;;;;;74.43;48.72;;;102.40;2227.20;;;;;;5036303;28;20076;-56
2021/11/17 06:03:58;;;;;;;64.38;45.03;;;102.40;2227.20;;;;;;5036376;28;20507;-56
2021/11/17 06:06:24;;;;;;;53.50;36.63;;;102.50;2227.20;;;;;;5036208;28;20025;-56
2021/11/17 06:08:50;;;;;;;50.13;30.30;;;102.60;2227.20;;;;;;5036058;28;20116;-56
2021/11/17 06:11:20;;;;;;;37.20;23.60;;;102.70;2227.20;;;;;;5036091;28;20060;-56
2021/11/17 06:13:46;;;;;;;39.88;24.27;;;102.80;2227.20;;;;;;5036126;28;20022;-56
2021/11/17 06:16:12;;;;;;;52.13;28.85;;;102.80;2227.20;;;;;;5068308;28;20037;-56
2021/11/17 06:18:41;;;;;;;47.30;27.73;;;102.80;2227.20;;;;;;5036041;28;20033;-56
2021/11/17 06:21:10;;;;;;;45.10;26.98;;;102.90;2227.20;;;;;;5035995;28;20017;-57
2021/11/17 06:23:47;;;;;;;40.22;27.40;;;102.90;2227.20;;;;;;5035893;28;20052;-55
2021/11/17 06:26:19;;;;;;;44.00;28.73;;;102.90;2227.20;;;;;;5036080;28;20039;-57
2021/11/17 06:28:48;;;;;;;65.75;41.85;;;103.00;2227.20;;;;;;5035812;28;20033;-55
2021/11/17 06:31:13;;;;;;;81.78;51.50;;;103.00;2227.20;;;;;;5036170;28;20091;-55
2021/11/17 06:33:39;;;;;;;77.20;50.25;;;103.00;2227.20;;;;;;5036068;28;20033;-55
2021/11/17 06:36:05;;;;;;;65.70;38.00;;;103.20;2227.20;;;;;;5031518;28;20456;-57
2021/11/17 06:38:31;;;;;;;73.57;41.70;;;103.20;2227.20;;;;;;5032986;28;20038;-55
2021/11/17 06:40:57;;;;;;;115.63;68.25;;;103.30;2227.20;;;;;;5032588;28;20025;-54
2021/11/17 06:43:24;;;;;;;117.10;58.08;;;128.00;2252.80;;;;;;5032656;28;20029;-56
2021/11/17 06:45:54;;;;;;;94.18;54.58;;;128.00;2252.80;;;;;;5032722;28;20024;-55
2021/11/17 06:48:22;;;;;;;70.40;46.47;;;128.20;2252.80;;;;;;5032676;28;20599;-56
2021/11/17 06:50:49;;;;;;;453.30;274.48;;;128.20;2252.80;;;;;;5032591;28;20067;-56
2021/11/17 06:53:15;;;;;;;372.02;224.55;;;128.50;2252.80;;;;;;5032482;28;20018;-55
2021/11/17 06:55:41;;;;;;;291.10;175.45;;;128.60;2252.80;;;;;;5032596;28;20021;-55
2021/11/17 06:58:08;;;;;;;150.18;96.38;;;128.70;2252.80;;;;;;5032197;28;20365;-56
2021/11/17 07:00:36;;;;;;;72.68;40.55;;;128.70;2252.80;;;;;;5032291;28;20056;-56
2021/11/17 07:03:03;;;;;;;122.50;89.35;;;128.70;2252.80;;;;;;5032674;28;20435;-56
2021/11/17 07:05:30;;;;;;;231.18;162.68;;;128.70;2252.80;;;;;;5032403;28;20025;-56
2021/11/17 07:07:56;;;;;;;99.15;68.97;;;128.80;2252.80;;;;;;5032147;28;20029;-55
2021/11/17 07:10:26;;;;;;;52.40;33.75;;;128.90;2252.80;;;;;;5032086;28;20104;-55
2021/11/17 07:12:53;;;;;;;38.05;25.38;;;153.80;2252.80;;;;;;5032182;28;20052;-56
2021/11/17 07:15:20;;;;;;;48.90;30.65;;;154.00;2252.80;;;;;;5032044;28;20476;-56
2021/11/17 07:17:46;;;;;;;36.35;22.75;;;154.10;2252.80;;;;;;5032123;28;20039;-56
2021/11/17 07:20:14;;;;;;;41.58;29.10;;;154.10;2252.80;;;;;;5032178;28;20101;-56
2021/11/17 07:22:40;;;;;;;55.20;38.47;;;154.10;2252.80;;;;;;5032237;28;20212;-56
2021/11/17 07:25:08;;;;;;;65.10;47.63;;;154.30;2252.80;;;;;;5031756;28;20022;-57
2021/11/17 07:27:36;;;;;;;45.78;30.30;;;154.30;2252.80;;;;;;5031952;28;20502;-56
2021/11/17 07:30:07;;;;;;;60.25;31.30;;;154.30;2252.80;;;;;;5031918;28;20048;-56
2021/11/17 07:32:33;;;;;;;37.47;25.27;;;154.40;2252.80;;;;;;5031714;28;20040;-56
2021/11/17 07:34:59;;;;;;;38.55;22.98;;;179.40;2252.80;;;;;;5032005;28;20025;-56
2021/11/17 07:37:25;;;;;;;98.63;62.83;;;204.90;2252.80;;;;;;5031653;28;20068;-57
2021/11/17 07:39:51;;;;;;;76.53;54.97;;;230.40;2252.80;;;;;;5031659;28;20052;-56
2021/11/17 07:42:17;;;;;;;153.43;115.68;;;231.20;2252.80;;;;;;5031496;28;20040;-56
2021/11/17 07:44:43;;;;;;;185.27;139.68;;;256.20;2252.80;;;;;;5031865;28;20028;-57
2021/11/17 07:47:10;;;;;;;191.80;137.48;;;256.60;2252.80;;;;;;5031017;28;20140;-57
2021/11/17 07:49:36;;;;;;;170.75;117.47;;;256.70;2252.80;;;;;;5031475;28;20021;-57
2021/11/17 07:52:03;;;;;;;141.68;99.72;;;281.80;2278.40;;;;;;5031667;28;20029;-57
2021/11/17 07:54:29;;;;;;;90.95;62.85;;;281.90;2278.40;;;;;;5031411;28;20028;-57
2021/11/17 07:56:56;;;;;;;81.80;60.30;;;282.10;2278.40;;;;;;5031138;28;20029;-56
2021/11/17 07:59:24;;;;;;;51.80;39.97;;;307.40;2304.00;;;;;;5031669;28;20087;-56
2021/11/17 08:01:53;;;;;;;43.70;34.40;;;332.80;2329.60;;;;;;5031455;28;20050;-57
2021/11/17 08:04:21;;;;;;;44.53;34.30;;;332.90;2329.60;;;;;;5031160;28;20059;-56
2021/11/17 08:06:47;;;;;;;46.45;34.40;;;333.10;2329.60;;;;;;5031213;28;20060;-57
2021/11/17 08:09:14;;;;;;;60.55;50.80;;;333.70;2329.60;;;;;;5031272;28;20029;-57
2021/11/17 08:11:42;;;;;;;93.95;68.20;;;333.30;2329.60;;;;;;5031047;28;20104;-57
2021/11/17 08:14:08;;;;;;;115.15;91.22;;;333.20;2329.60;;;;;;5030854;28;20026;-57
2021/11/17 08:16:34;;;;;;;200.95;149.10;;;333.50;2329.60;;;;;;5031256;28;20518;-57
2021/11/17 08:19:00;;;;;;;174.20;135.32;;;333.40;2329.60;;;;;;5031131;28;20040;-58
2021/11/17 08:21:26;;;;;;;172.13;132.25;;;333.50;2329.60;;;;;;5030818;28;20014;-57
2021/11/17 08:23:52;;;;;;;204.63;151.55;;;333.60;2329.60;;;;;;5030887;28;20025;-56
2021/11/17 08:26:19;;;;;;;173.20;137.40;;;333.50;2329.60;;;;;;5030710;28;20510;-57
2021/11/17 08:28:46;;;;;;;188.15;145.15;;;333.00;2329.60;;;;;;5030821;28;20021;-57
2021/11/17 08:31:13;;;;;;;184.38;142.10;;;333.00;2329.60;;;;;;5030873;28;20056;-57
2021/11/17 08:33:40;;;;;;;181.55;139.57;;;358.50;2329.60;;;;;;5030423;28;20018;-57
2021/11/17 08:36:05;;;;;;;173.80;141.00;;;358.80;2329.60;;;;;;5030544;28;20472;-57
2021/11/17 08:38:32;;;;;;;151.20;126.95;;;384.30;2329.60;;;;;;5030709;28;20039;-57
2021/11/17 08:41:03;;;;;;;146.93;114.47;;;384.80;2304.00;;;;;;5030396;28;20091;-58
2021/11/17 08:43:30;;;;;;;138.88;109.25;;;384.70;2201.60;;;;;;5030641;28;20754;-57
2021/11/17 08:45:57;;;;;;;126.70;99.57;;;384.90;2227.20;;;;;;5030495;28;20029;-57
2021/11/17 08:48:26;;;;;;;103.40;82.45;;;409.80;2227.20;;;;;;5030611;28;20029;-57
2021/11/17 08:50:55;;;;;;;111.90;85.03;;;384.30;2252.80;;;;;;5030542;28;20025;-57
2021/11/17 08:53:22;;;;;;;90.63;73.85;;;358.50;2329.60;;;;;;5030668;28;20065;-57
2021/11/17 08:55:48;;;;;;;107.00;79.30;;;333.30;2329.60;;;;;;5030156;28;20021;-55
2021/11/17 08:58:15;;;;;;;102.63;80.25;;;308.00;2304.00;;;;;;5030008;28;20112;-58
2021/11/17 09:00:43;;;;;;;111.90;81.18;;;307.50;2304.00;;;;;;5030034;28;20098;-56
2021/11/17 09:03:10;;;;;;;127.53;95.55;;;307.20;2304.00;;;;;;5030194;28;20036;-56
2021/11/17 09:05:39;;;;;;;118.30;87.95;;;307.20;2304.00;;;;;;5030159;28;20028;-55
2021/11/17 09:08:06;;;;;;;105.93;75.78;;;282.20;2278.40;;;;;;5030075;28;20030;-56
2021/11/17 09:10:35;;;;;;;105.88;72.15;;;281.70;2278.40;;;;;;5030129;28;20018;-56
2021/11/17 09:13:01;;;;;;;113.38;79.38;;;281.70;2278.40;;;;;;5030535;28;20026;-56
2021/11/17 09:15:34;;;;;;;140.48;97.72;;;281.70;2278.40;;;;;;5030141;28;20099;-56
2021/11/17 09:18:01;;;;;;;106.60;79.15;;;281.60;2278.40;;;;;;5030142;28;20487;-56
2021/11/17 09:20:28;;;;;;;100.82;71.90;;;256.90;2252.80;;;;;;5030064;28;20036;-56
2021/11/17 09:22:54;;;;;;;97.95;67.82;;;256.80;2252.80;;;;;;5030177;28;20029;-56
2021/11/17 09:25:22;;;;;;;116.45;81.25;;;256.70;2252.80;;;;;;5030031;28;20597;-56
2021/11/17 09:27:49;;;;;;;116.72;87.57;;;281.70;2278.40;;;;;;5030069;28;20036;-56
2021/11/17 09:30:19;;;;;;;99.53;69.20;;;281.70;2278.40;;;;;;5029632;28;20026;-57
2021/11/17 09:32:49;;;;;;;79.20;60.55;;;281.70;2278.40;;;;;;5029666;28;20030;-56
2021/11/17 09:35:16;;;;;;;175.13;130.90;;;282.20;2278.40;;;;;;5029727;28;20031;-56
2021/11/17 09:37:44;;;;;;;124.30;87.78;;;307.20;2304.00;;;;;;5029823;28;20033;-56
2021/11/17 09:40:15;;;;;;;272.58;198.55;;;307.20;2304.00;;;;;;5030146;28;20384;-57
2021/11/17 09:42:41;;;;;;;153.52;106.78;;;307.40;2304.00;;;;;;5030022;28;20104;-56
2021/11/17 09:45:10;;;;;;;151.88;110.20;;;282.50;2278.40;;;;;;5029780;28;20443;-56
2021/11/17 09:47:37;;;;;;;137.38;102.93;;;282.50;2278.40;;;;;;5029940;28;20096;-57
2021/11/17 09:50:34;;;;;;;107.55;76.07;;;307.20;2304.00;;;;;;5030139;28;20518;-57
2021/11/17 09:53:06;;;;;;;117.88;88.63;;;282.40;2278.40;;;;;;5029860;28;20033;-56
2021/11/17 09:55:46;;;;;;;131.68;100.80;;;282.40;2278.40;;;;;;5029994;28;20026;-56
2021/11/17 09:58:24;;;;;;;244.00;180.63;;;282.30;2278.40;;;;;;5029774;28;20034;-56
2021/11/17 10:00:58;;;;;;;256.33;182.73;;;282.40;2278.40;;;;;;5029417;28;20107;-57
2021/11/17 10:03:30;;;;;;;272.33;176.02;;;282.30;2278.40;;;;;;5029935;28;20037;-56
2021/11/17 10:14:29;;;;;;;48.97;33.45;;;281.70;2278.40;;;;;;5033461;28;20080;-57
2021/11/17 10:16:55;;;;;;;128.17;81.37;;;281.90;2278.40;;;;;;5033117;28;20041;-56
2021/11/17 10:19:26;;;;;;;131.57;81.78;;;282.10;2278.40;;;;;;5033302;28;20263;-56
2021/11/17 10:22:11;;;;;;;85.97;51.47;;;282.00;2278.40;;;;;;5033164;28;20116;-56
2021/11/17 10:24:44;;;;;;;65.65;44.30;;;282.00;2278.40;;;;;;5032829;28;20025;-59
2021/11/17 10:27:12;;;;;;;59.92;38.92;;;282.20;2278.40;;;;;;5033168;28;20040;-60
2021/11/17 10:29:44;;;;;;;70.32;50.13;;;282.10;2278.40;;;;;;5032790;28;20117;-60
2021/11/17 10:32:31;;;;;;;81.90;56.25;;;281.90;2278.40;;;;;;5033101;28;20492;-60
2021/11/17 10:35:14;;;;;;;118.80;77.50;;;282.00;2278.40;;;;;;5032748;28;20028;-60
2021/11/17 10:37:44;;;;;;;162.55;110.15;;;282.10;2278.40;;;;;;5032922;28;20411;-60
2021/11/17 10:40:24;;;;;;;149.60;101.78;;;282.30;2278.40;;;;;;5032889;28;20428;-60
2021/11/17 10:43:03;;;;;;;130.40;86.53;;;307.30;2304.00;;;;;;5032707;28;20083;-60
2021/11/17 10:45:45;;;;;;;160.38;107.65;;;282.30;2278.40;;;;;;5032626;28;20029;-60
2021/11/17 10:48:29;;;;;;;127.82;82.65;;;282.30;2278.40;;;;;;5032767;28;20034;-60
2021/11/17 10:51:03;;;;;;;;;;;282.50;2278.40;;;;;;5032095;28;20067;-60
2021/11/17 10:53:31;;;;;;;127.15;84.97;;;307.70;2304.00;;;;;;5032542;28;20381;-60
2021/11/17 10:56:02;;;;;;;143.65;98.22;;;308.00;2304.00;;;;;;5032339;28;20021;-60
2021/11/17 10:58:32;;;;;;;125.28;84.18;;;308.00;2304.00;;;;;;5032384;28;20033;-60
2021/11/17 11:01:05;;;;;;;118.70;80.57;;;332.80;2329.60;;;;;;5032102;28;20046;-60
2021/11/17 11:03:36;;;;;;;122.32;83.43;;;332.90;2329.60;;;;;;5032638;28;20029;-60
2021/11/17 11:06:13;;;;;;;126.57;83.07;;;333.10;2329.60;;;;;;5032453;28;20430;-60
2021/11/17 11:09:07;;;;;;;89.05;61.45;;;308.00;2304.00;;;;;;5032198;28;20053;-60
2021/11/17 11:11:35;;;;;;;;;;;308.00;2304.00;;;;;;5033050;28;20014;-60
2021/11/17 11:14:17;;;;;;;77.75;51.88;;;307.80;2304.00;;;;;;5032331;28;19912;-60
2021/11/17 11:17:13;;;;;;;68.05;49.30;;;307.80;2304.00;;;;;;5032437;28;20112;-60
2021/11/17 11:19:40;;;;;;;76.63;48.38;;;307.90;2304.00;;;;;;5030693;28;20033;-60
2021/11/17 11:22:21;;;;;;;79.05;54.58;;;307.70;2304.00;;;;;;5031236;28;20047;-60
2021/11/17 11:24:53;;;;;;;70.85;42.65;;;307.80;2304.00;;;;;;5031762;28;20028;-60
2021/11/17 11:27:29;;;;;;;67.18;45.55;;;307.60;2304.00;;;;;;5032058;28;20022;-60
2021/11/17 11:30:04;;;;;;;72.65;43.22;;;307.80;2304.00;;;;;;5031766;28;20034;-60
2021/11/17 11:32:29;;;;;;;70.95;49.15;;;332.90;2329.60;;;;;;5031921;28;20080;-60
2021/11/17 11:34:58;;;;;;;53.65;34.55;;;333.20;2329.60;;;;;;5031712;28;20026;-61
2021/11/17 11:37:23;;;;;;;65.13;39.25;;;332.90;2329.60;;;;;;5031704;28;20052;-65
2021/11/17 11:39:52;;;;;;;64.57;39.13;;;307.90;2304.00;;;;;;5031851;28;20025;-63
2021/11/17 11:42:32;;;;;;;45.42;30.15;;;307.80;2304.00;;;;;;5031620;28;20029;-60
2021/11/17 11:45:21;;;;;;;48.47;31.77;;;307.70;2304.00;;;;;;5031697;28;20028;-60
2021/11/17 11:47:50;;;;;;;204.68;130.48;;;307.70;2304.00;;;;;;5027656;28;20117;-60
2021/11/17 11:50:35;;;;;;;70.28;47.35;;;307.80;2304.00;;;;;;5031389;28;20476;-60
2021/11/17 11:53:30;;;;;;;88.28;59.10;;;332.80;2329.60;;;;;;5031800;28;20031;-60
2021/11/17 11:55:58;;;;;;;66.90;42.90;;;332.90;2329.60;;;;;;5030897;28;20033;-60
2021/11/17 11:58:27;;;;;;;54.20;33.90;;;308.00;2304.00;;;;;;5031320;28;20033;-60
2021/11/17 12:00:59;;;;;;;48.22;31.50;;;307.90;2304.00;;;;;;5031067;28;20168;-60
2021/11/17 12:03:28;;;;;;;56.42;36.08;;;307.60;2304.00;;;;;;5031671;28;20577;-60
2021/11/17 12:06:10;;;;;;;51.38;36.15;;;307.80;2304.00;;;;;;5031324;28;20030;-60
2021/11/17 12:09:13;;;;;;;50.70;32.45;;;308.00;2304.00;;;;;;5030977;28;20040;-60
2021/11/17 12:11:58;;;;;;;51.67;34.92;;;307.60;2304.00;;;;;;5030779;28;20021;-60
2021/11/17 12:14:39;;;;;;;55.90;34.33;;;307.60;2304.00;;;;;;5031031;28;20087;-60
2021/11/17 12:17:07;;;;;;;60.80;38.83;;;307.80;2304.00;;;;;;5030986;28;20475;-60
2021/11/17 12:19:38;;;;;;;57.72;38.67;;;307.80;2304.00;;;;;;5031169;28;20022;-60
2021/11/17 12:22:11;;;;;;;63.30;40.80;;;308.00;2304.00;;;;;;5031090;28;20025;-60
2021/11/17 12:24:41;;;;;;;47.58;32.45;;;308.10;2304.00;;;;;;5031133;28;20408;-60
2021/11/17 12:27:12;;;;;;;49.63;36.17;;;307.80;2304.00;;;;;;5030716;28;20483;-60
2021/11/17 12:29:58;;;;;;;37.75;24.40;;;308.00;2304.00;;;;;;5030525;28;20037;-60
2021/11/17 12:32:32;;;;;;;32.20;24.10;;;307.60;2304.00;;;;;;5029916;28;20028;-60
2021/11/17 12:35:04;;;;;;;32.17;23.55;;;307.60;2304.00;;;;;;5062417;28;20114;-60
2021/11/17 12:37:51;;;;;;;57.97;40.72;;;307.70;2304.00;;;;;;5030363;28;20486;-58
2021/11/17 12:40:32;;;;;;;40.25;27.83;;;307.80;2304.00;;;;;;5030423;28;20155;-60
2021/11/17 12:43:00;;;;;;;38.85;27.50;;;307.60;2304.00;;;;;;5030777;28;20021;-59
2021/11/17 12:45:46;;;;;;;53.45;35.35;;;307.70;2304.00;;;;;;5030350;28;20033;-60
2021/11/17 12:48:34;;;;;;;51.63;35.97;;;307.60;2304.00;;;;;;5030692;28;20163;-60
2021/11/17 12:51:18;;;;;;;62.70;41.40;;;307.80;2304.00;;;;;;5030402;28;20025;-60
2021/11/17 12:54:14;;;;;;;63.42;38.75;;;307.80;2304.00;;;;;;5030565;28;20375;-60
2021/11/17 12:56:41;;;;;;;67.70;47.80;;;307.60;2304.00;;;;;;5026955;28;20091;-60
2021/11/17 12:59:17;;;;;;;64.05;41.35;;;307.60;2304.00;;;;;;5030203;28;20048;-60
2021/11/17 13:01:47;;;;;;;55.33;35.33;;;307.60;2304.00;;;;;;5030177;28;20133;-60
2021/11/17 13:04:12;;;;;;;60.00;39.80;;;307.30;2304.00;;;;;;5030357;28;20025;-60
2021/11/17 13:06:41;;;;;;;56.13;41.05;;;307.20;2304.00;;;;;;5030110;28;20024;-60
2021/11/17 13:09:30;;;;;;;48.70;32.45;;;282.50;2278.40;;;;;;5028131;28;20026;-60
2021/11/17 13:12:09;;;;;;;53.70;36.72;;;282.50;2278.40;;;;;;5028409;28;20033;-59
2021/11/17 13:14:37;;;;;;;58.22;41.50;;;282.40;2278.40;;;;;;5028660;28;20370;-60
2021/11/17 13:17:10;;;;;;;61.97;40.92;;;282.30;2278.40;;;;;;5028530;28;20060;-58
2021/11/17 13:19:41;;;;;;;77.60;52.60;;;282.40;2278.40;;;;;;5028420;28;20065;-61
2021/11/17 13:22:29;;;;;;;88.55;58.30;;;282.50;2278.40;;;;;;5027817;28;20514;-60
2021/11/17 13:25:50;;;;;;;128.32;80.57;;;282.40;2278.40;;;;;;5028721;28;20037;-60
2021/11/17 13:28:39;;;;;;;69.30;48.28;;;282.30;2278.40;;;;;;5006007;28;20014;-60
2021/11/17 13:31:32;;;;;;;61.05;37.60;;;307.20;2304.00;;;;;;5027197;28;20534;-60
2021/11/17 13:34:12;;;;;;;59.90;40.53;;;307.20;2304.00;;;;;;5027112;28;20069;-60
2021/11/17 13:36:44;;;;;;;63.97;41.47;;;307.20;2304.00;;;;;;5028026;28;20037;-60
2021/11/17 13:39:11;;;;;;;84.75;59.05;;;307.30;2304.00;;;;;;5028175;28;20063;-60
2021/11/17 13:41:41;;;;;;;65.97;43.42;;;307.30;2304.00;;;;;;5027964;28;20025;-60
2021/11/17 13:44:07;;;;;;;91.97;58.00;;;307.30;2304.00;;;;;;5029425;28;20072;-60
2021/11/17 13:46:34;;;;;;;115.95;72.82;;;282.40;2278.40;;;;;;5032393;28;20046;-60
2021/11/17 13:49:00;;;;;;;99.82;65.50;;;282.50;2278.40;;;;;;5031668;28;20118;-60
2021/11/17 13:51:27;;;;;;;66.68;43.80;;;282.50;2278.40;;;;;;5032057;28;20484;-58
2021/11/17 13:53:54;;;;;;;91.70;63.13;;;282.50;2278.40;;;;;;5032599;28;20105;-60
2021/11/17 13:56:30;;;;;;;115.60;78.00;;;307.20;2304.00;;;;;;5031927;28;20424;-60
2021/11/17 13:58:56;;;;;;;93.93;62.10;;;307.20;2304.00;;;;;;5031618;28;20511;-60
2021/11/17 14:01:23;;;;;;;83.47;55.85;;;307.30;2304.00;;;;;;5033486;28;20053;-60
2021/11/17 14:03:49;;;;;;;76.75;50.90;;;307.30;2304.00;;;;;;5033491;28;20022;-60
2021/11/17 14:06:17;;;;;;;86.85;57.83;;;307.40;2304.00;;;;;;5033626;28;20028;-60
2021/11/17 14:08:43;;;;;;;134.30;87.93;;;307.40;2304.00;;;;;;5033425;28;20108;-61
2021/11/17 14:11:11;;;;;;;122.70;85.53;;;307.30;2304.00;;;;;;5033133;28;20467;-60
2021/11/17 14:13:37;;;;;;;180.32;109.82;;;307.30;2304.00;;;;;;5033278;28;20427;-60
2021/11/17 14:16:04;;;;;;;169.75;101.10;;;307.30;2304.00;;;;;;5033560;28;20108;-60
2021/11/17 14:18:30;;;;;;;143.68;87.75;;;307.20;2304.00;;;;;;5033203;28;20037;-60
2021/11/17 14:20:58;;;;;;;101.80;65.82;;;307.20;2304.00;;;;;;5033065;28;20091;-61
2021/11/17 14:23:24;;;;;;;98.15;67.53;;;282.50;2278.40;;;;;;5033173;28;20033;-60
2021/11/17 14:25:50;;;;;;;156.35;113.30;;;282.40;2278.40;;;;;;5032999;28;20464;-60
2021/11/17 14:28:20;;;;;;;157.98;122.13;;;282.50;2278.40;;;;;;5033054;28;20041;-60
2021/11/17 14:30:53;;;;;;;118.35;87.85;;;282.40;2278.40;;;;;;5032858;28;20391;-60
2021/11/17 14:33:21;;;;;;;;;;;282.40;2278.40;;;;;;5033353;28;20030;-60
2021/11/17 14:35:47;;;;;;;224.38;170.05;;;282.30;2278.40;;;;;;5032862;28;19928;-60
2021/11/17 14:38:17;;;;;;;188.07;150.32;;;282.30;2278.40;;;;;;5032739;28;20038;-60
2021/11/17 14:40:48;;;;;;;198.38;148.80;;;282.30;2278.40;;;;;;5032815;28;20018;-60
2021/11/17 14:43:15;;;;;;;170.48;123.53;;;282.30;2278.40;;;;;;5032957;28;20025;-60
2021/11/17 14:45:41;;;;;;;171.85;119.30;;;282.30;2278.40;;;;;;5032987;28;20029;-60
2021/11/17 14:48:07;;;;;;;167.55;118.30;;;282.20;2278.40;;;;;;5032775;28;20052;-60
2021/11/17 14:50:33;;;;;;;143.70;101.07;;;282.20;2278.40;;;;;;5032870;28;20099;-60
2021/11/17 14:52:59;;;;;;;177.88;125.28;;;282.00;2278.40;;;;;;5032447;28;20116;-60
2021/11/17 14:55:27;;;;;;;242.35;162.93;;;281.90;2278.40;;;;;;5031788;28;20021;-60
2021/11/17 14:57:53;;;;;;;215.27;148.63;;;281.80;2278.40;;;;;;5032361;28;20037;-60
2021/11/17 15:00:33;;;;;;;207.05;147.30;;;281.80;2278.40;;;;;;5032021;28;20051;-60
2021/11/17 15:02:59;;;;;;;235.73;167.98;;;281.70;2278.40;;;;;;5013895;28;20030;-59
2021/11/17 15:05:27;;;;;;;252.57;184.82;;;281.70;2278.40;;;;;;5012682;28;20168;-60
2021/11/17 15:07:53;;;;;;;239.52;172.98;;;281.70;2278.40;;;;;;5012961;28;20026;-60